Allensburg, Ohio
Current Conditions -  °F | °C
As of 4:54 PM on Monday 22 Dec 2014 (Local Time) from KILN Reporting Station
Overcast Overcast  
Wind Chill: 39°   Ceiling: 10000
Heat Index: 44°   Visibility: 10mi
Dew Point: 36°   Wind: 9mph
Humidity: 73%   Direction: 100°E
Pressure: 29.84"   Gusts: NA
Location:  39.1546°N, 83.569°W
Report Text: KILN 222154Z AUTO 10008KT 10SM OVC100 07/02 A2984 RMK AO2 SLP125 T00670022
Loading
Personal Weather Stations






























Interactive Weather Map New forecast layout! Learn more

10-Day Weather Forecast

Advertisements
Track Severe Weather on mobile